createdAt,value
2018-02-25T00:00:57.601Z,5.90
2018-02-25T00:01:57.601Z,6.50
2018-02-25T00:02:57.631Z,5.50
2018-02-25T00:03:57.570Z,6.30
2018-02-25T00:04:57.582Z,5.60
2018-02-25T00:05:57.567Z,7.40
2018-02-25T00:06:57.573Z,5.80
2018-02-25T00:07:57.559Z,5.40
2018-02-25T00:08:57.559Z,5.30
2018-02-25T00:09:57.570Z,5.90
2018-02-25T00:10:57.568Z,6.20
2018-02-25T00:11:57.541Z,6.60
2018-02-25T00:12:57.531Z,5.80
2018-02-25T00:13:57.555Z,6.40
2018-02-25T00:14:57.558Z,5.20
2018-02-25T00:15:57.536Z,6.90
2018-02-25T00:16:57.522Z,5.00
2018-02-25T00:17:57.510Z,8.00
2018-02-25T00:18:57.520Z,6.10
2018-02-25T00:19:57.498Z,5.40
2018-02-25T00:20:57.512Z,6.40
2018-02-25T00:21:57.537Z,5.50
2018-02-25T00:22:57.505Z,6.50
2018-02-25T00:23:57.507Z,5.00
2018-02-25T00:24:57.541Z,5.00
2018-02-25T00:25:58.163Z,6.40
2018-02-25T00:26:57.459Z,5.70
2018-02-25T00:27:57.455Z,6.30
2018-02-25T00:28:57.540Z,4.90
2018-02-25T00:29:57.453Z,6.80
2018-02-25T00:30:57.498Z,4.60
2018-02-25T00:31:57.455Z,5.60
2018-02-25T00:32:57.459Z,5.50
2018-02-25T00:33:57.424Z,5.10
2018-02-25T00:34:57.453Z,6.50
2018-02-25T00:35:57.427Z,6.00
2018-02-25T00:36:57.451Z,5.90
2018-02-25T00:37:57.406Z,5.10
2018-02-25T00:38:57.490Z,7.30
2018-02-25T00:39:57.397Z,6.30
2018-02-25T00:40:57.389Z,6.30
2018-02-25T00:41:57.390Z,5.30
2018-02-25T00:42:57.395Z,7.90
2018-02-25T00:43:57.402Z,5.40
2018-02-25T00:44:57.385Z,6.40
2018-02-25T00:45:57.388Z,5.90
2018-02-25T00:46:57.405Z,6.90
2018-02-25T00:47:57.360Z,6.00
2018-02-25T00:48:57.381Z,4.70
2018-02-25T00:49:57.373Z,6.60
2018-02-25T00:50:57.381Z,6.30
2018-02-25T00:51:57.355Z,7.70
2018-02-25T00:52:57.366Z,7.30
2018-02-25T00:53:57.320Z,6.00
2018-02-25T00:54:57.323Z,5.30
2018-02-25T00:55:57.321Z,6.30
2018-02-25T00:56:57.363Z,4.90
2018-02-25T00:57:57.298Z,5.00
2018-02-25T00:58:57.335Z,6.20
2018-02-25T00:59:58.163Z,5.50
2018-02-25T01:00:57.298Z,5.30
2018-02-25T01:01:57.309Z,6.40
2018-02-25T01:02:57.295Z,6.10
2018-02-25T01:03:57.274Z,5.50
2018-02-25T01:04:57.264Z,12.70
2018-02-25T01:05:57.280Z,5.40
2018-02-25T01:06:57.286Z,6.10
2018-02-25T01:07:57.257Z,6.30
2018-02-25T01:08:57.263Z,5.00
2018-02-25T01:09:57.266Z,5.00
2018-02-25T01:10:57.283Z,5.10
2018-02-25T01:11:57.254Z,6.60
2018-02-25T01:12:57.234Z,7.70
2018-02-25T01:13:57.237Z,5.10
2018-02-25T01:14:57.231Z,6.20
2018-02-25T01:15:57.316Z,6.80
2018-02-25T01:16:57.236Z,5.90
2018-02-25T01:17:57.225Z,5.60
2018-02-25T01:18:57.209Z,5.20
2018-02-25T01:19:57.211Z,5.30
2018-02-25T01:20:57.209Z,5.10
2018-02-25T01:21:57.182Z,6.80
2018-02-25T01:22:57.206Z,6.40
2018-02-25T01:23:57.183Z,6.20
2018-02-25T01:24:57.198Z,6.40
2018-02-25T01:25:57.180Z,5.70
2018-02-25T01:26:57.155Z,5.30
2018-02-25T01:27:57.216Z,5.90
2018-02-25T01:28:57.663Z,6.00
2018-02-25T01:29:57.139Z,6.20
2018-02-25T01:30:57.182Z,8.00
2018-02-25T01:31:57.143Z,6.60
2018-02-25T01:32:57.172Z,5.20
2018-02-25T01:33:57.126Z,5.60
2018-02-25T01:34:57.140Z,5.00
2018-02-25T01:35:57.139Z,6.10
2018-02-25T01:36:57.149Z,5.20
2018-02-25T01:37:57.116Z,7.20
2018-02-25T01:38:57.115Z,7.60
2018-02-25T01:39:57.121Z,6.10
2018-02-25T01:40:57.142Z,6.30
2018-02-25T01:41:57.102Z,5.80
2018-02-25T01:42:57.099Z,6.30
2018-02-25T01:43:57.078Z,5.50
2018-02-25T01:44:57.079Z,6.70
2018-02-25T01:45:57.116Z,6.40
2018-02-25T01:46:57.109Z,6.10
2018-02-25T01:47:57.056Z,5.80
2018-02-25T01:48:57.072Z,5.40
2018-02-25T01:49:57.045Z,5.70
2018-02-25T01:50:57.057Z,6.90
2018-02-25T01:51:57.039Z,7.00
2018-02-25T01:52:57.022Z,6.70
2018-02-25T01:53:57.061Z,6.50
2018-02-25T01:54:57.025Z,5.30
2018-02-25T01:55:57.023Z,6.30
2018-02-25T01:56:57.047Z,7.00
2018-02-25T01:57:57.016Z,6.10
2018-02-25T01:58:57.054Z,6.90
2018-02-25T01:59:57.020Z,6.30
2018-02-25T02:00:57.039Z,6.20
2018-02-25T02:01:56.992Z,7.30
2018-02-25T02:02:56.984Z,6.10
2018-02-25T02:03:56.969Z,5.30
2018-02-25T02:04:56.958Z,8.10
2018-02-25T02:05:56.965Z,5.60
2018-02-25T02:06:56.966Z,5.70
2018-02-25T02:07:56.958Z,7.10
2018-02-25T02:08:56.949Z,7.20
2018-02-25T02:09:56.939Z,6.10
2018-02-25T02:10:56.979Z,5.80
2018-02-25T02:11:56.933Z,8.40
2018-02-25T02:12:56.968Z,6.30
2018-02-25T02:13:56.933Z,6.60
2018-02-25T02:14:56.917Z,7.00
2018-02-25T02:15:56.933Z,6.90
2018-02-25T02:16:56.927Z,6.90
2018-02-25T02:17:56.894Z,6.70
2018-02-25T02:18:56.926Z,6.80
2018-02-25T02:19:56.895Z,7.60
2018-02-25T02:20:56.883Z,6.30
2018-02-25T02:21:56.889Z,6.40
2018-02-25T02:22:56.905Z,6.30
2018-02-25T02:23:56.869Z,5.70
2018-02-25T02:24:56.890Z,6.40
2018-02-25T02:25:56.857Z,5.50
2018-02-25T02:26:56.888Z,7.60
2018-02-25T02:27:56.847Z,6.40
2018-02-25T02:28:56.853Z,6.80
2018-02-25T02:29:56.838Z,6.50
2018-02-25T02:30:56.836Z,6.10
2018-02-25T02:31:56.850Z,5.40
2018-02-25T02:32:56.837Z,6.80
2018-02-25T02:33:56.847Z,7.30
2018-02-25T02:34:56.876Z,7.00
2018-02-25T02:35:56.856Z,6.10
2018-02-25T02:36:58.811Z,5.40
2018-02-25T02:37:56.803Z,5.30
2018-02-25T02:38:56.838Z,6.70
2018-02-25T02:39:56.823Z,7.90
2018-02-25T02:40:56.788Z,6.50
2018-02-25T02:41:56.804Z,7.00
2018-02-25T02:42:56.781Z,5.90
2018-02-25T02:43:56.774Z,7.10
2018-02-25T02:44:56.792Z,7.30
2018-02-25T02:45:56.774Z,5.90
2018-02-25T02:46:56.764Z,5.50
2018-02-25T02:47:56.762Z,5.80
2018-02-25T02:48:56.766Z,6.00
2018-02-25T02:49:56.769Z,6.50
2018-02-25T02:50:56.748Z,7.20
2018-02-25T02:51:56.711Z,6.20
2018-02-25T02:52:56.785Z,6.90
2018-02-25T02:53:56.721Z,7.20
2018-02-25T02:54:56.702Z,7.40
2018-02-25T02:55:56.710Z,7.00
2018-02-25T02:56:56.708Z,6.50
2018-02-25T02:57:56.699Z,6.90
2018-02-25T02:58:56.705Z,5.70
2018-02-25T02:59:56.691Z,6.20
2018-02-25T03:00:56.676Z,6.50
2018-02-25T03:01:56.701Z,6.50
2018-02-25T03:02:56.749Z,6.70
2018-02-25T03:03:56.723Z,6.90
2018-02-25T03:04:56.662Z,5.40
2018-02-25T03:05:56.642Z,6.30
2018-02-25T03:06:56.672Z,6.30
2018-02-25T03:07:56.676Z,6.90
2018-02-25T03:08:56.636Z,6.80
2018-02-25T03:09:56.681Z,8.60
2018-02-25T03:10:56.620Z,5.90
2018-02-25T03:11:56.653Z,5.80
2018-02-25T03:12:56.613Z,7.60
2018-02-25T03:13:56.626Z,6.40
2018-02-25T03:14:56.609Z,6.50
2018-02-25T03:15:57.178Z,7.40
2018-02-25T03:16:56.631Z,6.00
2018-02-25T03:17:56.622Z,6.90
2018-02-25T03:18:57.167Z,7.60
2018-02-25T03:19:56.611Z,6.30
2018-02-25T03:20:56.599Z,6.80
2018-02-25T03:21:56.599Z,7.10
2018-02-25T03:22:56.593Z,5.90
2018-02-25T03:23:56.548Z,7.90
2018-02-25T03:24:56.561Z,7.50
2018-02-25T03:25:56.560Z,6.70
2018-02-25T03:26:56.556Z,6.30
2018-02-25T03:27:56.555Z,5.80
2018-02-25T03:28:56.540Z,7.90
2018-02-25T03:29:56.553Z,9.20
2018-02-25T03:30:56.509Z,7.80
2018-02-25T03:31:56.526Z,7.40
2018-02-25T03:32:56.523Z,7.30
2018-02-25T03:33:56.493Z,6.80
2018-02-25T03:34:56.497Z,7.80
2018-02-25T03:35:56.502Z,6.30
2018-02-25T03:36:57.173Z,8.40
2018-02-25T03:37:56.509Z,8.00
2018-02-25T03:38:56.467Z,7.50
2018-02-25T03:39:56.533Z,6.90
2018-02-25T03:40:56.486Z,6.90
2018-02-25T03:41:56.468Z,6.80
2018-02-25T03:42:56.441Z,9.20
2018-02-25T03:43:56.515Z,7.30
2018-02-25T03:44:56.449Z,7.10
2018-02-25T03:45:56.441Z,8.30
2018-02-25T03:46:56.480Z,7.70
2018-02-25T03:47:56.483Z,8.00
2018-02-25T03:48:56.451Z,7.10
2018-02-25T03:49:56.434Z,7.60
2018-02-25T03:50:56.433Z,6.70
2018-02-25T03:51:56.408Z,6.80
2018-02-25T03:52:56.418Z,7.00
2018-02-25T03:53:56.427Z,7.10
2018-02-25T03:54:56.432Z,7.30
2018-02-25T03:55:56.436Z,8.60
2018-02-25T03:56:56.381Z,7.50
2018-02-25T03:57:56.396Z,8.10
2018-02-25T03:58:56.388Z,7.90
2018-02-25T03:59:56.362Z,7.50
2018-02-25T04:00:56.363Z,9.60
2018-02-25T04:01:56.350Z,8.70
2018-02-25T04:02:56.369Z,8.90
2018-02-25T04:03:56.328Z,6.80
2018-02-25T04:04:56.337Z,8.20
2018-02-25T04:05:56.319Z,6.60
2018-02-25T04:06:56.321Z,6.80
2018-02-25T04:07:56.309Z,8.80
2018-02-25T04:08:56.326Z,6.30
2018-02-25T04:09:56.300Z,7.30
2018-02-25T04:10:56.315Z,7.20
2018-02-25T04:11:56.287Z,7.40
2018-02-25T04:12:56.282Z,8.80
2018-02-25T04:13:56.294Z,7.70
2018-02-25T04:14:56.289Z,6.80
2018-02-25T04:15:56.277Z,6.60
2018-02-25T04:16:56.283Z,7.70
2018-02-25T04:17:56.263Z,7.10
2018-02-25T04:18:56.298Z,8.10
2018-02-25T04:19:56.257Z,8.20
2018-02-25T04:20:56.242Z,6.30
2018-02-25T04:21:56.237Z,6.60
2018-02-25T04:22:56.282Z,8.50
2018-02-25T04:23:57.167Z,8.20
2018-02-25T04:24:56.253Z,7.00
2018-02-25T04:25:56.220Z,8.50
2018-02-25T04:26:56.289Z,7.00
2018-02-25T04:27:56.256Z,8.20
2018-02-25T04:28:56.207Z,7.60
2018-02-25T04:29:56.209Z,6.50
2018-02-25T04:30:56.239Z,7.40
2018-02-25T04:31:56.193Z,8.80
2018-02-25T04:32:56.231Z,6.90
2018-02-25T04:33:56.177Z,8.20
2018-02-25T04:34:56.206Z,8.90
2018-02-25T04:35:56.229Z,6.80
2018-02-25T04:36:56.199Z,8.50
2018-02-25T04:37:56.163Z,7.90
2018-02-25T04:38:56.153Z,6.40
2018-02-25T04:39:56.670Z,7.60
2018-02-25T04:40:56.130Z,8.20
2018-02-25T04:41:56.128Z,7.90
2018-02-25T04:42:56.170Z,8.20
2018-02-25T04:43:56.130Z,7.30
2018-02-25T04:44:56.119Z,9.20
2018-02-25T04:45:56.128Z,7.60
2018-02-25T04:46:56.098Z,7.60
2018-02-25T04:47:56.121Z,8.20
2018-02-25T04:48:56.126Z,7.30
2018-02-25T04:49:56.127Z,7.00
2018-02-25T04:50:56.087Z,9.90
2018-02-25T04:51:56.075Z,7.50
2018-02-25T04:52:56.077Z,7.90
2018-02-25T04:53:56.069Z,7.60
2018-02-25T04:54:56.059Z,9.00
2018-02-25T04:55:56.190Z,7.70
2018-02-25T04:56:56.148Z,7.20
2018-02-25T04:57:56.082Z,6.50
2018-02-25T04:58:56.087Z,7.80
2018-02-25T04:59:56.041Z,8.20
2018-02-25T05:00:56.032Z,7.50
2018-02-25T05:01:56.029Z,8.00
2018-02-25T05:02:56.033Z,7.40
2018-02-25T05:03:56.042Z,8.40
2018-02-25T05:04:56.018Z,7.80
2018-02-25T05:05:56.024Z,8.90
2018-02-25T05:06:55.999Z,7.50
2018-02-25T05:07:55.991Z,10.20
2018-02-25T05:08:56.017Z,7.90
2018-02-25T05:09:56.012Z,9.30
2018-02-25T05:10:55.972Z,7.80
2018-02-25T05:11:55.979Z,8.20
2018-02-25T05:12:55.965Z,7.80
2018-02-25T05:13:56.672Z,6.70
2018-02-25T05:14:55.953Z,8.40
2018-02-25T05:15:55.967Z,8.00
2018-02-25T05:16:55.995Z,7.80
2018-02-25T05:17:55.941Z,8.00
2018-02-25T05:18:55.925Z,11.90
2018-02-25T05:19:55.942Z,6.90
2018-02-25T05:20:55.934Z,6.70
2018-02-25T05:21:55.911Z,8.00
2018-02-25T05:22:55.964Z,7.30
2018-02-25T05:23:55.938Z,9.60
2018-02-25T05:24:55.916Z,6.50
2018-02-25T05:25:55.913Z,8.40
2018-02-25T05:26:55.925Z,8.40
2018-02-25T05:27:55.883Z,9.20
2018-02-25T05:28:55.887Z,8.70
2018-02-25T05:29:55.870Z,6.90
2018-02-25T05:30:55.894Z,8.00
2018-02-25T05:31:55.882Z,8.40
2018-02-25T05:32:55.886Z,8.50
2018-02-25T05:33:55.872Z,6.90
2018-02-25T05:34:55.852Z,7.70
2018-02-25T05:35:55.828Z,7.10
2018-02-25T05:36:55.829Z,6.60
2018-02-25T05:37:55.830Z,7.50
2018-02-25T05:38:55.828Z,6.90
2018-02-25T05:39:55.811Z,8.20
2018-02-25T05:40:55.820Z,9.10
2018-02-25T05:41:55.832Z,7.00
2018-02-25T05:42:56.672Z,6.90
2018-02-25T05:43:55.789Z,8.10
2018-02-25T05:44:55.798Z,8.90
2018-02-25T05:45:55.779Z,8.40
2018-02-25T05:46:55.813Z,6.90
2018-02-25T05:47:55.763Z,8.10
2018-02-25T05:48:55.824Z,9.00
2018-02-25T05:49:55.765Z,7.80
2018-02-25T05:50:55.792Z,8.70
2018-02-25T05:51:55.752Z,9.20
2018-02-25T05:52:55.761Z,8.30
2018-02-25T05:53:55.738Z,8.80
2018-02-25T05:54:55.784Z,8.00
2018-02-25T05:55:55.722Z,8.60
2018-02-25T05:56:55.742Z,7.90
2018-02-25T05:57:55.707Z,7.50
2018-02-25T05:58:55.762Z,8.50
2018-02-25T05:59:55.708Z,7.80
2018-02-25T06:00:55.737Z,7.50
2018-02-25T06:01:55.694Z,8.30
2018-02-25T06:02:55.803Z,8.10
2018-02-25T06:03:55.728Z,7.80
2018-02-25T06:04:55.678Z,8.50
2018-02-25T06:05:55.657Z,8.80
2018-02-25T06:06:55.668Z,7.70
2018-02-25T06:07:55.662Z,8.40
2018-02-25T06:08:55.641Z,6.60
2018-02-25T06:09:55.664Z,7.60
2018-02-25T06:10:55.649Z,8.30
2018-02-25T06:11:55.651Z,7.50
2018-02-25T06:12:55.631Z,7.80
2018-02-25T06:13:55.618Z,8.40
2018-02-25T06:14:55.643Z,7.70
2018-02-25T06:15:55.608Z,7.80
2018-02-25T06:16:55.599Z,7.70
2018-02-25T06:17:55.609Z,7.20
2018-02-25T06:18:55.618Z,9.30
2018-02-25T06:19:55.604Z,7.30
2018-02-25T06:20:55.583Z,9.10
2018-02-25T06:21:55.590Z,7.70
2018-02-25T06:22:55.625Z,6.70
2018-02-25T06:23:55.577Z,6.90
2018-02-25T06:24:55.586Z,6.70
2018-02-25T06:25:55.569Z,8.70
2018-02-25T06:26:55.579Z,8.50
2018-02-25T06:27:55.539Z,7.50
2018-02-25T06:28:55.595Z,7.80
2018-02-25T06:29:55.569Z,7.00
2018-02-25T06:30:55.548Z,10.00
2018-02-25T06:31:55.545Z,9.30
2018-02-25T06:32:56.165Z,7.10
2018-02-25T06:33:55.514Z,7.10
2018-02-25T06:34:55.502Z,8.20
2018-02-25T06:35:55.524Z,8.80
2018-02-25T06:36:55.492Z,6.80
2018-02-25T06:37:55.503Z,8.20
2018-02-25T06:38:55.487Z,7.50
2018-02-25T06:39:55.467Z,7.30
2018-02-25T06:40:55.511Z,7.10
2018-02-25T06:41:55.470Z,7.90
2018-02-25T06:42:55.458Z,8.10
2018-02-25T06:43:55.451Z,8.70
2018-02-25T06:44:55.436Z,8.20
2018-02-25T06:45:55.441Z,8.60
2018-02-25T06:46:55.494Z,7.80
2018-02-25T06:47:55.467Z,8.30
2018-02-25T06:48:55.463Z,6.90
2018-02-25T06:49:55.417Z,7.00
2018-02-25T06:50:56.170Z,7.20
2018-02-25T06:51:55.413Z,7.80
2018-02-25T06:52:55.410Z,7.90
2018-02-25T06:53:56.169Z,8.40
2018-02-25T06:54:55.440Z,8.00
2018-02-25T06:55:55.412Z,8.20
2018-02-25T06:56:55.462Z,8.30
2018-02-25T06:57:55.381Z,7.50
2018-02-25T06:58:55.385Z,7.00
2018-02-25T06:59:55.376Z,7.20
2018-02-25T07:00:55.432Z,7.00
2018-02-25T07:01:55.375Z,7.90
2018-02-25T07:02:55.363Z,8.00
2018-02-25T07:03:55.342Z,7.90
2018-02-25T07:04:55.397Z,7.60
2018-02-25T07:05:55.341Z,7.80
2018-02-25T07:06:56.167Z,7.80
2018-02-25T07:07:55.332Z,7.90
2018-02-25T07:08:55.316Z,8.50
2018-02-25T07:09:55.322Z,7.90
2018-02-25T07:10:55.300Z,10.40
2018-02-25T07:11:55.302Z,7.40
2018-02-25T07:12:55.290Z,7.60
2018-02-25T07:13:55.296Z,8.00
2018-02-25T07:14:55.299Z,6.80
2018-02-25T07:15:55.273Z,9.20
2018-02-25T07:16:55.539Z,7.40
2018-02-25T07:17:55.260Z,8.00
2018-02-25T07:18:55.263Z,7.50
2018-02-25T07:19:55.251Z,8.10
2018-02-25T07:20:55.258Z,7.40
2018-02-25T07:21:55.260Z,9.00
2018-02-25T07:22:55.306Z,6.90
2018-02-25T07:23:55.226Z,8.70
2018-02-25T07:24:55.220Z,9.20
2018-02-25T07:25:55.225Z,8.60
2018-02-25T07:26:55.227Z,8.80
2018-02-25T07:27:55.224Z,6.90
2018-02-25T07:28:55.216Z,9.30
2018-02-25T07:29:55.221Z,7.90
2018-02-25T07:30:55.204Z,8.50
2018-02-25T07:31:55.210Z,8.60
2018-02-25T07:32:55.172Z,8.10
2018-02-25T07:33:55.201Z,9.30
2018-02-25T07:34:55.228Z,7.80
2018-02-25T07:35:55.159Z,9.40
2018-02-25T07:36:55.160Z,8.40
2018-02-25T07:37:55.165Z,8.50
2018-02-25T07:38:55.207Z,9.20
2018-02-25T07:39:55.180Z,9.50
2018-02-25T07:40:55.164Z,8.10
2018-02-25T07:41:55.259Z,8.80
2018-02-25T07:42:55.146Z,6.90
2018-02-25T07:43:55.137Z,7.40
2018-02-25T07:44:55.119Z,7.80
2018-02-25T07:45:55.123Z,8.40
2018-02-25T07:46:55.177Z,7.50
2018-02-25T07:47:55.145Z,8.50
2018-02-25T07:48:55.124Z,7.80
2018-02-25T07:49:55.145Z,7.30
2018-02-25T07:50:55.103Z,7.40
2018-02-25T07:51:55.080Z,7.40
2018-02-25T07:52:55.090Z,8.30
2018-02-25T07:53:55.073Z,7.00
2018-02-25T07:54:55.150Z,7.20
2018-02-25T07:55:55.101Z,7.10
2018-02-25T07:56:55.138Z,7.80
2018-02-25T07:57:55.063Z,7.60
2018-02-25T07:58:55.080Z,7.10
2018-02-25T07:59:55.055Z,7.60
2018-02-25T08:00:55.067Z,8.30
2018-02-25T08:01:55.043Z,7.40
2018-02-25T08:02:55.062Z,8.10
2018-02-25T08:03:55.064Z,7.90
2018-02-25T08:04:55.053Z,8.30
2018-02-25T08:05:55.038Z,8.90
2018-02-25T08:06:55.077Z,8.40
2018-02-25T08:07:55.046Z,7.00
2018-02-25T08:08:55.076Z,8.30
2018-02-25T08:09:55.131Z,7.40
2018-02-25T08:10:55.032Z,9.80
2018-02-25T08:11:55.032Z,7.00
2018-02-25T08:12:55.089Z,8.30
2018-02-25T08:13:55.026Z,8.60
2018-02-25T08:14:55.037Z,7.80
2018-02-25T08:15:55.039Z,6.90
2018-02-25T08:16:55.049Z,7.00
2018-02-25T08:17:55.034Z,8.00
2018-02-25T08:18:55.078Z,6.30
2018-02-25T08:19:55.024Z,6.60
2018-02-25T08:20:55.023Z,7.60
2018-02-25T08:21:55.020Z,8.10
2018-02-25T08:22:55.678Z,9.50
2018-02-25T08:23:55.014Z,7.90
2018-02-25T08:24:55.028Z,6.80
2018-02-25T08:25:55.049Z,6.00
2018-02-25T08:26:55.039Z,7.20
2018-02-25T08:27:55.014Z,7.80
2018-02-25T08:28:55.018Z,7.90
2018-02-25T08:29:55.015Z,6.90
2018-02-25T08:30:55.065Z,7.30
2018-02-25T08:31:55.031Z,7.20
2018-02-25T08:32:55.049Z,7.70
2018-02-25T08:33:55.013Z,8.50
2018-02-25T08:34:55.041Z,7.20
2018-02-25T08:35:55.058Z,7.30
2018-02-25T08:36:55.005Z,8.10
2018-02-25T08:37:55.043Z,7.10
2018-02-25T08:38:55.045Z,7.30
2018-02-25T08:39:55.023Z,7.90
2018-02-25T08:40:54.997Z,6.90
2018-02-25T08:41:55.082Z,7.70
2018-02-25T08:42:55.005Z,6.70
2018-02-25T08:43:55.025Z,7.20
2018-02-25T08:44:55.014Z,7.20
2018-02-25T08:45:55.022Z,6.40
2018-02-25T08:46:55.027Z,7.50
2018-02-25T08:47:55.024Z,6.80
2018-02-25T08:48:54.994Z,8.40
2018-02-25T08:49:55.000Z,7.00
2018-02-25T08:50:55.044Z,7.50
2018-02-25T08:51:54.996Z,7.30
2018-02-25T08:52:55.007Z,7.10
2018-02-25T08:53:54.985Z,7.00
2018-02-25T08:54:54.994Z,7.20
2018-02-25T08:55:55.033Z,6.60
2018-02-25T08:56:55.062Z,8.10
2018-02-25T08:57:55.005Z,7.10
2018-02-25T08:58:55.035Z,8.40
2018-02-25T08:59:54.976Z,7.90
2018-02-25T09:00:55.057Z,5.90
2018-02-25T09:01:54.977Z,6.00
2018-02-25T09:02:54.982Z,7.60
2018-02-25T09:03:54.975Z,7.40
2018-02-25T09:04:54.979Z,6.30
2018-02-25T09:05:54.972Z,7.30
2018-02-25T09:06:55.128Z,5.80
2018-02-25T09:07:54.969Z,6.20
2018-02-25T09:08:54.995Z,7.50
2018-02-25T09:09:54.988Z,6.20
2018-02-25T09:10:54.996Z,5.70
2018-02-25T09:11:54.967Z,5.60
2018-02-25T09:12:54.981Z,6.20
2018-02-25T09:13:54.977Z,6.70
2018-02-25T09:14:54.970Z,5.80
2018-02-25T09:15:54.984Z,6.20
2018-02-25T09:16:54.986Z,5.80
2018-02-25T09:17:54.967Z,6.50
2018-02-25T09:18:54.963Z,6.30
2018-02-25T09:19:55.032Z,6.70
2018-02-25T09:20:54.979Z,5.40
2018-02-25T09:21:54.983Z,6.80
2018-02-25T09:22:54.983Z,6.30
2018-02-25T09:23:55.022Z,5.80
2018-02-25T09:24:54.992Z,6.20
2018-02-25T09:25:54.981Z,6.00
2018-02-25T09:26:54.980Z,6.00
2018-02-25T09:27:55.062Z,6.00
2018-02-25T09:28:55.029Z,5.70
2018-02-25T09:29:54.978Z,6.50
2018-02-25T09:30:55.066Z,5.70
2018-02-25T09:31:54.980Z,5.30
2018-02-25T09:32:54.999Z,5.00
2018-02-25T09:33:54.990Z,5.20
2018-02-25T09:34:55.041Z,4.80
2018-02-25T09:35:55.068Z,5.30
2018-02-25T09:36:55.000Z,5.10
2018-02-25T09:37:55.691Z,5.10
2018-02-25T09:38:55.013Z,5.00
2018-02-25T09:39:55.005Z,5.70
2018-02-25T09:40:55.019Z,4.70
2018-02-25T09:41:55.016Z,4.60
2018-02-25T09:42:55.055Z,5.60
2018-02-25T09:43:55.027Z,5.60
2018-02-25T09:44:55.035Z,4.80
2018-02-25T09:45:55.026Z,5.30
2018-02-25T09:46:55.019Z,5.90
2018-02-25T09:47:55.034Z,5.70
2018-02-25T09:48:55.018Z,5.00
2018-02-25T09:49:55.028Z,4.50
2018-02-25T09:50:55.126Z,5.90
2018-02-25T09:51:55.032Z,5.40
2018-02-25T09:52:55.034Z,5.10
2018-02-25T09:53:55.106Z,4.60
2018-02-25T09:54:55.037Z,5.00
2018-02-25T09:55:55.212Z,5.20
2018-02-25T09:56:55.070Z,6.50
2018-02-25T09:57:55.111Z,6.50
2018-02-25T09:58:55.080Z,4.80
2018-02-25T09:59:55.125Z,4.70
2018-02-25T10:00:55.057Z,4.70
2018-02-25T10:01:55.060Z,4.90
2018-02-25T10:02:55.071Z,5.40
2018-02-25T10:03:55.180Z,4.30
2018-02-25T10:04:55.084Z,4.40
2018-02-25T10:05:55.701Z,4.50
2018-02-25T10:06:55.110Z,4.40
2018-02-25T10:07:55.080Z,4.90
2018-02-25T10:08:55.140Z,4.60
2018-02-25T10:09:55.161Z,4.70
2018-02-25T10:10:55.126Z,5.80
2018-02-25T10:11:55.140Z,4.70
2018-02-25T10:12:55.097Z,4.60
2018-02-25T10:13:55.135Z,5.20
2018-02-25T10:14:55.103Z,4.50
2018-02-25T10:15:55.166Z,4.80
2018-02-25T10:16:55.145Z,5.20
2018-02-25T10:17:55.150Z,4.90
2018-02-25T10:18:55.113Z,4.80
2018-02-25T10:19:55.214Z,4.80
2018-02-25T10:20:55.122Z,4.70
2018-02-25T10:21:55.718Z,4.70
2018-02-25T10:22:55.200Z,4.10
2018-02-25T10:23:55.176Z,4.30
2018-02-25T10:24:55.137Z,5.20
2018-02-25T10:25:55.192Z,4.20
2018-02-25T10:26:55.141Z,4.30
2018-02-25T10:27:55.151Z,5.10
2018-02-25T10:28:55.189Z,4.60
2018-02-25T10:29:55.192Z,5.60
2018-02-25T10:30:55.150Z,4.40
2018-02-25T10:31:55.169Z,4.20
2018-02-25T10:32:55.177Z,5.70
2018-02-25T10:33:55.173Z,6.00
2018-02-25T10:34:55.299Z,4.30
2018-02-25T10:35:55.196Z,4.30
2018-02-25T10:36:55.178Z,5.50
2018-02-25T10:37:55.191Z,5.00
2018-02-25T10:38:55.207Z,4.70
2018-02-25T10:39:55.225Z,4.90
2018-02-25T10:40:55.177Z,4.30
2018-02-25T10:41:55.240Z,4.70
2018-02-25T10:42:55.231Z,4.60
2018-02-25T10:43:55.206Z,4.40
2018-02-25T10:44:55.269Z,4.30
2018-02-25T10:45:55.267Z,4.70
2018-02-25T10:46:55.252Z,5.60
2018-02-25T10:47:55.298Z,4.10
2018-02-25T10:48:55.232Z,5.10
2018-02-25T10:49:55.293Z,5.10
2018-02-25T10:50:55.302Z,4.20
2018-02-25T10:51:55.230Z,3.90
2018-02-25T10:52:55.238Z,3.80
2018-02-25T10:53:55.286Z,4.20
2018-02-25T10:54:55.241Z,4.10
2018-02-25T10:55:55.338Z,3.60
2018-02-25T10:56:55.244Z,3.80
2018-02-25T10:57:55.281Z,4.30
2018-02-25T10:58:55.281Z,3.40
2018-02-25T10:59:55.295Z,3.50
2018-02-25T11:00:55.286Z,4.40
2018-02-25T11:01:55.298Z,4.40
2018-02-25T11:02:55.307Z,4.00
2018-02-25T11:03:55.317Z,4.20
2018-02-25T11:04:55.326Z,4.30
2018-02-25T11:05:55.325Z,5.50
2018-02-25T11:06:55.295Z,3.90
2018-02-25T11:07:55.301Z,3.50
2018-02-25T11:08:55.330Z,3.40
2018-02-25T11:09:55.365Z,4.50
2018-02-25T11:10:55.295Z,4.50
2018-02-25T11:11:55.343Z,4.00
2018-02-25T11:12:55.304Z,3.70
2018-02-25T11:13:55.335Z,5.00
2018-02-25T11:14:55.328Z,3.60
2018-02-25T11:15:55.324Z,3.80
2018-02-25T11:16:55.340Z,3.20
2018-02-25T11:17:55.382Z,3.70
2018-02-25T11:18:55.350Z,3.80
2018-02-25T11:19:55.380Z,3.90
2018-02-25T11:20:55.340Z,4.20
2018-02-25T11:21:55.483Z,3.30
2018-02-25T11:22:55.358Z,3.30
2018-02-25T11:23:55.383Z,4.20
2018-02-25T11:24:55.370Z,3.40
2018-02-25T11:25:55.438Z,3.20
2018-02-25T11:26:55.374Z,4.70
2018-02-25T11:27:55.388Z,4.10
2018-02-25T11:28:55.378Z,4.20
2018-02-25T11:29:55.401Z,2.90
2018-02-25T11:30:55.377Z,3.40
2018-02-25T11:31:55.389Z,4.30
2018-02-25T11:32:55.403Z,3.30
2018-02-25T11:33:55.431Z,3.50
2018-02-25T11:34:55.410Z,3.30
2018-02-25T11:35:55.455Z,3.20
2018-02-25T11:36:55.428Z,3.90
2018-02-25T11:37:55.435Z,3.30
2018-02-25T11:38:55.542Z,3.30
2018-02-25T11:39:55.423Z,3.20
2018-02-25T11:40:55.447Z,4.10
2018-02-25T11:41:55.462Z,3.40
2018-02-25T11:42:55.480Z,3.40
2018-02-25T11:43:55.488Z,4.10
2018-02-25T11:44:55.485Z,4.80
2018-02-25T11:45:55.494Z,4.20
2018-02-25T11:46:55.492Z,5.30
2018-02-25T11:47:55.507Z,4.20
2018-02-25T11:48:55.454Z,4.20
2018-02-25T11:49:55.607Z,4.90
2018-02-25T11:50:55.456Z,4.40
2018-02-25T11:51:55.457Z,4.80
2018-02-25T11:52:55.474Z,4.80
2018-02-25T11:53:55.459Z,4.90
2018-02-25T11:54:55.496Z,4.60
2018-02-25T11:55:55.470Z,4.30
2018-02-25T11:56:55.491Z,4.30
2018-02-25T11:57:55.481Z,4.10
2018-02-25T11:58:55.519Z,4.40
2018-02-25T11:59:55.476Z,4.40
2018-02-25T12:00:55.507Z,4.10
2018-02-25T12:01:55.517Z,4.60
2018-02-25T12:02:55.517Z,4.50
2018-02-25T12:03:55.529Z,4.40
2018-02-25T12:04:55.508Z,4.30
2018-02-25T12:05:55.510Z,4.20
2018-02-25T12:06:56.255Z,4.30
2018-02-25T12:07:55.558Z,4.80
2018-02-25T12:08:55.510Z,4.40
2018-02-25T12:09:55.534Z,4.40
2018-02-25T12:10:55.518Z,3.80
2018-02-25T12:11:55.512Z,4.90
2018-02-25T12:12:55.537Z,5.50
2018-02-25T12:13:55.544Z,4.60
2018-02-25T12:14:59.278Z,5.20
2018-02-25T12:15:55.587Z,4.60
2018-02-25T12:16:55.548Z,4.10
2018-02-25T12:17:55.605Z,4.00
2018-02-25T12:18:55.574Z,4.40
2018-02-25T12:19:55.524Z,4.70
2018-02-25T12:20:55.515Z,3.80
2018-02-25T12:21:55.569Z,5.40
2018-02-25T12:22:55.513Z,4.30
2018-02-25T12:23:55.525Z,5.00
2018-02-25T12:24:55.539Z,4.50
2018-02-25T12:25:55.567Z,5.00
2018-02-25T12:26:55.515Z,4.70
2018-02-25T12:27:55.525Z,4.30
2018-02-25T12:28:55.580Z,4.40
2018-02-25T12:29:55.522Z,4.60
2018-02-25T12:30:55.545Z,4.40
2018-02-25T12:31:55.539Z,4.40
2018-02-25T12:32:55.514Z,4.10
2018-02-25T12:33:55.536Z,5.10
2018-02-25T12:34:55.509Z,4.30
2018-02-25T12:35:55.554Z,4.30
2018-02-25T12:36:55.507Z,4.70
2018-02-25T12:37:55.500Z,4.50
2018-02-25T12:38:55.507Z,4.50
2018-02-25T12:39:55.527Z,4.50
2018-02-25T12:40:55.501Z,3.90
2018-02-25T12:41:55.515Z,3.60
2018-02-25T12:42:55.487Z,4.50
2018-02-25T12:43:55.529Z,3.50
2018-02-25T12:44:55.534Z,3.40
2018-02-25T12:45:55.528Z,3.60
2018-02-25T12:46:55.505Z,4.80
2018-02-25T12:47:55.482Z,4.10
2018-02-25T12:48:55.517Z,4.10
2018-02-25T12:49:55.484Z,4.20
2018-02-25T12:50:55.604Z,5.40
2018-02-25T12:51:55.537Z,3.70
2018-02-25T12:52:55.482Z,4.90
2018-02-25T12:53:55.528Z,5.60
2018-02-25T12:54:55.486Z,4.20
2018-02-25T12:55:55.529Z,4.60
2018-02-25T12:56:55.466Z,3.40
2018-02-25T12:57:55.473Z,3.10
2018-02-25T12:58:55.487Z,3.50
2018-02-25T12:59:55.499Z,4.70
2018-02-25T13:00:55.527Z,4.30
2018-02-25T13:01:55.467Z,4.20
2018-02-25T13:02:55.454Z,3.50
2018-02-25T13:03:55.449Z,3.90
2018-02-25T13:04:55.491Z,4.90
2018-02-25T13:05:55.521Z,3.80
2018-02-25T13:06:55.539Z,3.40
2018-02-25T13:07:55.444Z,4.20
2018-02-25T13:08:55.497Z,4.10
2018-02-25T13:09:55.468Z,3.50
2018-02-25T13:10:55.442Z,4.10
2018-02-25T13:11:55.422Z,3.80
2018-02-25T13:12:55.438Z,4.30
2018-02-25T13:13:55.470Z,4.20
2018-02-25T13:14:55.422Z,4.90
2018-02-25T13:15:55.409Z,3.80
2018-02-25T13:16:55.446Z,3.60
2018-02-25T13:17:55.459Z,3.80
2018-02-25T13:18:55.438Z,5.40